sensor_id;sensor_type;location;lat;lon;timestamp;pressure;altitude;pressure_sealevel;temperature;humidity
60611;BME280;46439;51.164;13.572;2023-09-19T00:00:28;99062.08;;;19.66;100.00
60611;BME280;46439;51.164;13.572;2023-09-19T00:02:57;99061.86;;;19.66;100.00
60611;BME280;46439;51.164;13.572;2023-09-19T00:05:29;99057.92;;;19.68;100.00
60611;BME280;46439;51.164;13.572;2023-09-19T00:07:59;99057.23;;;19.69;100.00
60611;BME280;46439;51.164;13.572;2023-09-19T00:10:28;99055.02;;;19.72;100.00
60611;BME280;46439;51.164;13.572;2023-09-19T00:12:59;99054.88;;;19.70;100.00
60611;BME280;46439;51.164;13.572;2023-09-19T00:15:28;99049.75;;;19.66;100.00
60611;BME280;46439;51.164;13.572;2023-09-19T00:17:57;99045.51;;;19.63;100.00
60611;BME280;46439;51.164;13.572;2023-09-19T00:20:25;99041.61;;;19.61;100.00
60611;BME280;46439;51.164;13.572;2023-09-19T00:22:54;99034.31;;;19.60;100.00
60611;BME280;46439;51.164;13.572;2023-09-19T00:25:22;99027.83;;;19.58;100.00
60611;BME280;46439;51.164;13.572;2023-09-19T00:27:51;99029.17;;;19.60;100.00
60611;BME280;46439;51.164;13.572;2023-09-19T00:30:20;99026.00;;;19.61;100.00
60611;BME280;46439;51.164;13.572;2023-09-19T00:32:50;99020.30;;;19.61;100.00
60611;BME280;46439;51.164;13.572;2023-09-19T00:35:23;99017.34;;;19.61;100.00
60611;BME280;46439;51.164;13.572;2023-09-19T00:37:55;99013.02;;;19.53;100.00
60611;BME280;46439;51.164;13.572;2023-09-19T00:40:23;99009.04;;;19.56;100.00
60611;BME280;46439;51.164;13.572;2023-09-19T00:42:52;99014.38;;;19.61;100.00
60611;BME280;46439;51.164;13.572;2023-09-19T00:45:25;99016.69;;;19.61;100.00
60611;BME280;46439;51.164;13.572;2023-09-19T00:47:54;99019.16;;;19.61;100.00
60611;BME280;46439;51.164;13.572;2023-09-19T00:50:24;99019.69;;;19.59;100.00
60611;BME280;46439;51.164;13.572;2023-09-19T00:52:55;99017.10;;;19.57;100.00
60611;BME280;46439;51.164;13.572;2023-09-19T00:55:27;99015.95;;;19.57;100.00
60611;BME280;46439;51.164;13.572;2023-09-19T00:57:58;99015.91;;;19.52;100.00
60611;BME280;46439;51.164;13.572;2023-09-19T01:00:27;99014.02;;;19.49;100.00
60611;BME280;46439;51.164;13.572;2023-09-19T01:02:56;99011.63;;;19.44;100.00
60611;BME280;46439;51.164;13.572;2023-09-19T01:05:25;99017.05;;;19.50;100.00
60611;BME280;46439;51.164;13.572;2023-09-19T01:07:54;99016.90;;;19.52;100.00
60611;BME280;46439;51.164;13.572;2023-09-19T01:10:23;99019.61;;;19.51;100.00
60611;BME280;46439;51.164;13.572;2023-09-19T01:13:03;99024.30;;;19.48;100.00
60611;BME280;46439;51.164;13.572;2023-09-19T01:15:40;99023.66;;;19.44;100.00
60611;BME280;46439;51.164;13.572;2023-09-19T01:18:20;99030.40;;;19.44;100.00
60611;BME280;46439;51.164;13.572;2023-09-19T01:20:56;99033.23;;;19.44;100.00
60611;BME280;46439;51.164;13.572;2023-09-19T01:23:35;99036.57;;;19.43;100.00
60611;BME280;46439;51.164;13.572;2023-09-19T01:26:15;99037.69;;;19.40;100.00
60611;BME280;46439;51.164;13.572;2023-09-19T01:29:08;99038.42;;;19.31;100.00
60611;BME280;46439;51.164;13.572;2023-09-19T01:31:43;99039.85;;;19.30;100.00
60611;BME280;46439;51.164;13.572;2023-09-19T01:34:13;99037.15;;;19.30;100.00
60611;BME280;46439;51.164;13.572;2023-09-19T01:36:41;99043.33;;;19.28;100.00
60611;BME280;46439;51.164;13.572;2023-09-19T01:39:11;99044.21;;;19.23;100.00
60611;BME280;46439;51.164;13.572;2023-09-19T01:41:51;99039.36;;;19.15;100.00
60611;BME280;46439;51.164;13.572;2023-09-19T01:44:29;99042.58;;;19.14;100.00
60611;BME280;46439;51.164;13.572;2023-09-19T01:47:00;99044.70;;;19.12;100.00
60611;BME280;46439;51.164;13.572;2023-09-19T01:49:36;99041.10;;;19.09;100.00
60611;BME280;46439;51.164;13.572;2023-09-19T01:52:11;99040.92;;;19.10;100.00
60611;BME280;46439;51.164;13.572;2023-09-19T01:54:52;99042.72;;;19.07;100.00
60611;BME280;46439;51.164;13.572;2023-09-19T01:57:34;99048.02;;;19.06;100.00
60611;BME280;46439;51.164;13.572;2023-09-19T02:00:08;99048.43;;;19.10;100.00
60611;BME280;46439;51.164;13.572;2023-09-19T02:02:40;99046.66;;;19.11;100.00
60611;BME280;46439;51.164;13.572;2023-09-19T02:05:11;99042.44;;;19.11;100.00
60611;BME280;46439;51.164;13.572;2023-09-19T02:07:40;99039.34;;;19.08;100.00
60611;BME280;46439;51.164;13.572;2023-09-19T02:10:10;99042.77;;;19.06;100.00
60611;BME280;46439;51.164;13.572;2023-09-19T02:12:40;99040.70;;;19.07;100.00
60611;BME280;46439;51.164;13.572;2023-09-19T02:15:11;99044.94;;;19.10;100.00
60611;BME280;46439;51.164;13.572;2023-09-19T02:17:40;99047.41;;;19.16;100.00
60611;BME280;46439;51.164;13.572;2023-09-19T02:20:11;99045.63;;;19.19;100.00
60611;BME280;46439;51.164;13.572;2023-09-19T02:22:43;99046.67;;;19.19;100.00
60611;BME280;46439;51.164;13.572;2023-09-19T02:25:13;99048.42;;;19.18;100.00
60611;BME280;46439;51.164;13.572;2023-09-19T02:27:42;99052.11;;;19.16;100.00
60611;BME280;46439;51.164;13.572;2023-09-19T02:30:13;99054.59;;;19.13;100.00
60611;BME280;46439;51.164;13.572;2023-09-19T02:32:44;99060.29;;;19.13;100.00
60611;BME280;46439;51.164;13.572;2023-09-19T02:35:13;99060.92;;;19.15;100.00
60611;BME280;46439;51.164;13.572;2023-09-19T02:37:43;99061.31;;;19.16;100.00
60611;BME280;46439;51.164;13.572;2023-09-19T02:40:14;99061.02;;;19.15;100.00
60611;BME280;46439;51.164;13.572;2023-09-19T02:42:52;99063.15;;;19.14;100.00
60611;BME280;46439;51.164;13.572;2023-09-19T02:45:21;99067.08;;;19.13;100.00
60611;BME280;46439;51.164;13.572;2023-09-19T02:47:52;99069.02;;;19.15;100.00
60611;BME280;46439;51.164;13.572;2023-09-19T02:50:21;99069.35;;;19.15;100.00
60611;BME280;46439;51.164;13.572;2023-09-19T02:52:50;99071.04;;;19.15;100.00
60611;BME280;46439;51.164;13.572;2023-09-19T02:55:20;99071.27;;;19.15;100.00
60611;BME280;46439;51.164;13.572;2023-09-19T02:57:51;99068.28;;;19.13;100.00
60611;BME280;46439;51.164;13.572;2023-09-19T03:00:20;99069.20;;;19.13;100.00
60611;BME280;46439;51.164;13.572;2023-09-19T03:02:49;99066.28;;;19.15;100.00
60611;BME280;46439;51.164;13.572;2023-09-19T03:05:19;99068.08;;;19.18;100.00
60611;BME280;46439;51.164;13.572;2023-09-19T03:07:49;99069.88;;;19.20;100.00
60611;BME280;46439;51.164;13.572;2023-09-19T03:10:21;99079.34;;;19.23;100.00
60611;BME280;46439;51.164;13.572;2023-09-19T03:12:51;99081.50;;;19.27;100.00
60611;BME280;46439;51.164;13.572;2023-09-19T03:15:20;99085.54;;;19.25;100.00
60611;BME280;46439;51.164;13.572;2023-09-19T03:17:50;99088.55;;;19.26;100.00
60611;BME280;46439;51.164;13.572;2023-09-19T03:20:21;99093.23;;;19.24;100.00
60611;BME280;46439;51.164;13.572;2023-09-19T03:22:51;99096.22;;;19.26;100.00
60611;BME280;46439;51.164;13.572;2023-09-19T03:25:20;99094.48;;;19.23;100.00
60611;BME280;46439;51.164;13.572;2023-09-19T03:27:51;99093.71;;;19.21;100.00
60611;BME280;46439;51.164;13.572;2023-09-19T03:30:20;99096.23;;;19.23;100.00
60611;BME280;46439;51.164;13.572;2023-09-19T03:32:50;99094.17;;;19.23;100.00
60611;BME280;46439;51.164;13.572;2023-09-19T03:35:19;99095.00;;;19.20;100.00
60611;BME280;46439;51.164;13.572;2023-09-19T03:37:48;99102.69;;;19.22;100.00
60611;BME280;46439;51.164;13.572;2023-09-19T03:40:17;99101.45;;;19.22;100.00
60611;BME280;46439;51.164;13.572;2023-09-19T03:42:46;99096.66;;;19.21;100.00
60611;BME280;46439;51.164;13.572;2023-09-19T03:45:16;99096.50;;;19.21;100.00
60611;BME280;46439;51.164;13.572;2023-09-19T03:47:46;99102.17;;;19.19;100.00
60611;BME280;46439;51.164;13.572;2023-09-19T03:50:18;99107.60;;;19.16;100.00
60611;BME280;46439;51.164;13.572;2023-09-19T03:52:46;99109.98;;;19.13;100.00
60611;BME280;46439;51.164;13.572;2023-09-19T03:55:15;99107.34;;;19.12;100.00
60611;BME280;46439;51.164;13.572;2023-09-19T03:57:49;99102.42;;;19.09;100.00
60611;BME280;46439;51.164;13.572;2023-09-19T04:00:18;99106.02;;;19.07;100.00
60611;BME280;46439;51.164;13.572;2023-09-19T04:02:51;99103.33;;;19.06;100.00
60611;BME280;46439;51.164;13.572;2023-09-19T04:05:20;99103.86;;;19.05;100.00
60611;BME280;46439;51.164;13.572;2023-09-19T04:07:48;99110.48;;;19.05;100.00
60611;BME280;46439;51.164;13.572;2023-09-19T04:10:24;99110.46;;;19.04;100.00
60611;BME280;46439;51.164;13.572;2023-09-19T04:12:56;99116.36;;;19.03;100.00
60611;BME280;46439;51.164;13.572;2023-09-19T04:15:25;99117.75;;;19.05;100.00
60611;BME280;46439;51.164;13.572;2023-09-19T04:17:53;99116.10;;;19.04;100.00
60611;BME280;46439;51.164;13.572;2023-09-19T04:20:22;99114.94;;;19.02;100.00
60611;BME280;46439;51.164;13.572;2023-09-19T04:22:53;99110.68;;;19.04;100.00
60611;BME280;46439;51.164;13.572;2023-09-19T04:25:22;99113.83;;;19.01;100.00
60611;BME280;46439;51.164;13.572;2023-09-19T04:27:51;99117.02;;;18.99;100.00
60611;BME280;46439;51.164;13.572;2023-09-19T04:30:19;99125.13;;;19.00;100.00
60611;BME280;46439;51.164;13.572;2023-09-19T04:32:49;99130.45;;;19.01;100.00
60611;BME280;46439;51.164;13.572;2023-09-19T04:35:19;99137.01;;;19.00;100.00
60611;BME280;46439;51.164;13.572;2023-09-19T04:37:47;99132.92;;;18.97;100.00
60611;BME280;46439;51.164;13.572;2023-09-19T04:40:16;99136.99;;;18.95;100.00
60611;BME280;46439;51.164;13.572;2023-09-19T04:42:54;99145.23;;;18.93;100.00
60611;BME280;46439;51.164;13.572;2023-09-19T04:45:27;99150.79;;;18.96;100.00
60611;BME280;46439;51.164;13.572;2023-09-19T04:47:55;99156.30;;;18.94;100.00
60611;BME280;46439;51.164;13.572;2023-09-19T04:50:24;99151.15;;;18.95;100.00
60611;BME280;46439;51.164;13.572;2023-09-19T04:52:54;99148.38;;;18.95;100.00
60611;BME280;46439;51.164;13.572;2023-09-19T04:55:23;99150.57;;;18.95;100.00
60611;BME280;46439;51.164;13.572;2023-09-19T04:57:52;99154.18;;;18.96;100.00
60611;BME280;46439;51.164;13.572;2023-09-19T05:00:22;99155.11;;;18.96;100.00
60611;BME280;46439;51.164;13.572;2023-09-19T05:02:54;99162.98;;;18.95;100.00
60611;BME280;46439;51.164;13.572;2023-09-19T05:05:23;99164.59;;;18.97;100.00
60611;BME280;46439;51.164;13.572;2023-09-19T05:07:55;99168.30;;;19.00;100.00
60611;BME280;46439;51.164;13.572;2023-09-19T05:10:23;99169.84;;;19.01;100.00
60611;BME280;46439;51.164;13.572;2023-09-19T05:12:54;99175.30;;;19.00;100.00
60611;BME280;46439;51.164;13.572;2023-09-19T05:15:23;99176.91;;;18.98;100.00
60611;BME280;46439;51.164;13.572;2023-09-19T05:17:52;99180.94;;;19.00;100.00
60611;BME280;46439;51.164;13.572;2023-09-19T05:20:23;99183.77;;;18.99;100.00
60611;BME280;46439;51.164;13.572;2023-09-19T05:23:01;99191.11;;;19.00;100.00
60611;BME280;46439;51.164;13.572;2023-09-19T05:25:30;99192.63;;;19.00;100.00
60611;BME280;46439;51.164;13.572;2023-09-19T05:28:00;99193.63;;;19.00;100.00
60611;BME280;46439;51.164;13.572;2023-09-19T05:30:32;99193.12;;;19.04;100.00
60611;BME280;46439;51.164;13.572;2023-09-19T05:33:00;99203.30;;;19.04;100.00
60611;BME280;46439;51.164;13.572;2023-09-19T05:35:30;99204.73;;;19.05;100.00
60611;BME280;46439;51.164;13.572;2023-09-19T05:37:59;99206.98;;;19.05;100.00
60611;BME280;46439;51.164;13.572;2023-09-19T05:40:27;99210.16;;;19.05;100.00
60611;BME280;46439;51.164;13.572;2023-09-19T05:42:56;99211.93;;;19.07;100.00
60611;BME280;46439;51.164;13.572;2023-09-19T05:45:25;99212.55;;;19.08;100.00
60611;BME280;46439;51.164;13.572;2023-09-19T05:47:55;99213.40;;;19.07;100.00
60611;BME280;46439;51.164;13.572;2023-09-19T05:50:29;99212.19;;;19.05;100.00
60611;BME280;46439;51.164;13.572;2023-09-19T05:52:57;99213.73;;;19.06;100.00
60611;BME280;46439;51.164;13.572;2023-09-19T05:55:26;99219.46;;;19.10;100.00
60611;BME280;46439;51.164;13.572;2023-09-19T05:57:56;99224.14;;;19.11;100.00
60611;BME280;46439;51.164;13.572;2023-09-19T06:00:26;99228.25;;;19.12;100.00
60611;BME280;46439;51.164;13.572;2023-09-19T06:02:57;99227.80;;;19.11;100.00
60611;BME280;46439;51.164;13.572;2023-09-19T06:05:26;99232.29;;;19.12;100.00
60611;BME280;46439;51.164;13.572;2023-09-19T06:07:56;99236.00;;;19.14;100.00
60611;BME280;46439;51.164;13.572;2023-09-19T06:10:28;99242.02;;;19.14;100.00
60611;BME280;46439;51.164;13.572;2023-09-19T06:12:57;99244.17;;;19.12;100.00
60611;BME280;46439;51.164;13.572;2023-09-19T06:15:27;99245.93;;;19.13;100.00
60611;BME280;46439;51.164;13.572;2023-09-19T06:17:56;99248.33;;;19.16;100.00
60611;BME280;46439;51.164;13.572;2023-09-19T06:20:26;99248.15;;;19.19;100.00
60611;BME280;46439;51.164;13.572;2023-09-19T06:22:55;99254.16;;;19.26;100.00
60611;BME280;46439;51.164;13.572;2023-09-19T06:25:24;99250.41;;;19.37;100.00
60611;BME280;46439;51.164;13.572;2023-09-19T06:27:54;99259.31;;;19.39;100.00
60611;BME280;46439;51.164;13.572;2023-09-19T06:30:24;99258.52;;;19.37;100.00
60611;BME280;46439;51.164;13.572;2023-09-19T06:32:57;99261.58;;;19.37;100.00
60611;BME280;46439;51.164;13.572;2023-09-19T06:35:26;99263.52;;;19.43;100.00
60611;BME280;46439;51.164;13.572;2023-09-19T06:37:55;99268.04;;;19.45;100.00
60611;BME280;46439;51.164;13.572;2023-09-19T06:40:26;99277.49;;;19.48;100.00
60611;BME280;46439;51.164;13.572;2023-09-19T06:42:56;99276.17;;;19.49;100.00
60611;BME280;46439;51.164;13.572;2023-09-19T06:45:25;99275.90;;;19.48;100.00
60611;BME280;46439;51.164;13.572;2023-09-19T06:47:55;99273.79;;;19.50;100.00
60611;BME280;46439;51.164;13.572;2023-09-19T06:50:25;99281.41;;;19.54;100.00
60611;BME280;46439;51.164;13.572;2023-09-19T06:52:56;99289.38;;;19.56;100.00
60611;BME280;46439;51.164;13.572;2023-09-19T06:55:25;99293.70;;;19.61;100.00
60611;BME280;46439;51.164;13.572;2023-09-19T06:57:56;99296.20;;;19.69;100.00
60611;BME280;46439;51.164;13.572;2023-09-19T07:00:24;99300.41;;;19.73;100.00
60611;BME280;46439;51.164;13.572;2023-09-19T07:03:00;99302.79;;;19.77;100.00
60611;BME280;46439;51.164;13.572;2023-09-19T07:05:30;99306.85;;;19.81;100.00
60611;BME280;46439;51.164;13.572;2023-09-19T07:08:00;99307.66;;;19.86;100.00
60611;BME280;46439;51.164;13.572;2023-09-19T07:10:29;99309.95;;;19.88;100.00
60611;BME280;46439;51.164;13.572;2023-09-19T07:13:02;99309.95;;;19.88;100.00
60611;BME280;46439;51.164;13.572;2023-09-19T07:15:33;99309.21;;;19.91;100.00
60611;BME280;46439;51.164;13.572;2023-09-19T07:18:05;99313.69;;;19.94;100.00
60611;BME280;46439;51.164;13.572;2023-09-19T07:20:34;99318.42;;;19.93;100.00
60611;BME280;46439;51.164;13.572;2023-09-19T07:23:03;99331.86;;;19.89;100.00
60611;BME280;46439;51.164;13.572;2023-09-19T07:25:32;99333.08;;;19.89;100.00
60611;BME280;46439;51.164;13.572;2023-09-19T07:28:01;99333.80;;;19.99;100.00
60611;BME280;46439;51.164;13.572;2023-09-19T07:30:29;99333.70;;;20.05;100.00
60611;BME280;46439;51.164;13.572;2023-09-19T07:32:58;99337.03;;;20.08;100.00
60611;BME280;46439;51.164;13.572;2023-09-19T07:35:27;99336.01;;;20.14;100.00
60611;BME280;46439;51.164;13.572;2023-09-19T07:37:55;99342.10;;;20.21;100.00
60611;BME280;46439;51.164;13.572;2023-09-19T07:40:24;99345.02;;;20.22;100.00
60611;BME280;46439;51.164;13.572;2023-09-19T07:42:55;99346.06;;;20.16;100.00
60611;BME280;46439;51.164;13.572;2023-09-19T07:45:23;99343.92;;;20.18;100.00
60611;BME280;46439;51.164;13.572;2023-09-19T07:47:53;99336.80;;;20.22;100.00
60611;BME280;46439;51.164;13.572;2023-09-19T07:50:21;99341.17;;;20.26;100.00
60611;BME280;46439;51.164;13.572;2023-09-19T07:52:51;99343.17;;;20.29;100.00
60611;BME280;46439;51.164;13.572;2023-09-19T07:55:21;99341.85;;;20.28;100.00
60611;BME280;46439;51.164;13.572;2023-09-19T07:57:53;99342.08;;;20.28;100.00
60611;BME280;46439;51.164;13.572;2023-09-19T08:00:22;99347.10;;;20.28;100.00
60611;BME280;46439;51.164;13.572;2023-09-19T08:02:50;99346.79;;;20.28;100.00
60611;BME280;46439;51.164;13.572;2023-09-19T08:05:20;99351.30;;;20.30;100.00
60611;BME280;46439;51.164;13.572;2023-09-19T08:07:49;99352.55;;;20.35;100.00
60611;BME280;46439;51.164;13.572;2023-09-19T08:10:17;99352.55;;;20.41;100.00
60611;BME280;46439;51.164;13.572;2023-09-19T08:12:49;99351.98;;;20.48;100.00
60611;BME280;46439;51.164;13.572;2023-09-19T08:15:24;99354.59;;;20.51;100.00
60611;BME280;46439;51.164;13.572;2023-09-19T08:17:53;99356.44;;;20.55;100.00
60611;BME280;46439;51.164;13.572;2023-09-19T08:20:21;99352.11;;;20.60;100.00
60611;BME280;46439;51.164;13.572;2023-09-19T08:22:51;99351.58;;;20.64;100.00
60611;BME280;46439;51.164;13.572;2023-09-19T08:25:23;99358.38;;;20.72;100.00
60611;BME280;46439;51.164;13.572;2023-09-19T08:27:54;99357.52;;;20.79;100.00
60611;BME280;46439;51.164;13.572;2023-09-19T08:30:23;99363.62;;;20.87;100.00
60611;BME280;46439;51.164;13.572;2023-09-19T08:32:52;99364.06;;;20.94;100.00
60611;BME280;46439;51.164;13.572;2023-09-19T08:35:24;99363.25;;;21.01;100.00
60611;BME280;46439;51.164;13.572;2023-09-19T08:37:53;99369.84;;;21.10;100.00
60611;BME280;46439;51.164;13.572;2023-09-19T08:40:23;99374.41;;;21.17;100.00
60611;BME280;46439;51.164;13.572;2023-09-19T08:42:53;99376.73;;;21.21;100.00
60611;BME280;46439;51.164;13.572;2023-09-19T08:45:23;99371.95;;;21.18;100.00
60611;BME280;46439;51.164;13.572;2023-09-19T08:48:00;99377.30;;;21.16;100.00
60611;BME280;46439;51.164;13.572;2023-09-19T08:50:36;99377.13;;;21.15;100.00
60611;BME280;46439;51.164;13.572;2023-09-19T08:53:12;99382.86;;;21.18;100.00
60611;BME280;46439;51.164;13.572;2023-09-19T08:55:45;99388.71;;;21.22;100.00
60611;BME280;46439;51.164;13.572;2023-09-19T08:58:19;99395.10;;;21.25;100.00
60611;BME280;46439;51.164;13.572;2023-09-19T09:00:49;99394.16;;;21.30;100.00
60611;BME280;46439;51.164;13.572;2023-09-19T09:03:19;99392.73;;;21.32;100.00
60611;BME280;46439;51.164;13.572;2023-09-19T09:05:51;99394.38;;;21.39;100.00
60611;BME280;46439;51.164;13.572;2023-09-19T09:08:21;99396.48;;;21.42;100.00
60611;BME280;46439;51.164;13.572;2023-09-19T09:10:50;99396.72;;;21.47;100.00
60611;BME280;46439;51.164;13.572;2023-09-19T09:13:19;99393.58;;;21.53;100.00
60611;BME280;46439;51.164;13.572;2023-09-19T09:15:50;99393.38;;;21.57;100.00
60611;BME280;46439;51.164;13.572;2023-09-19T09:18:18;99387.70;;;21.62;100.00
60611;BME280;46439;51.164;13.572;2023-09-19T09:20:48;99382.02;;;21.61;100.00
60611;BME280;46439;51.164;13.572;2023-09-19T09:23:17;99379.48;;;21.70;100.00
60611;BME280;46439;51.164;13.572;2023-09-19T09:25:55;99376.89;;;21.77;100.00
60611;BME280;46439;51.164;13.572;2023-09-19T09:28:31;99375.17;;;21.81;100.00
60611;BME280;46439;51.164;13.572;2023-09-19T09:31:01;99376.17;;;21.85;100.00
60611;BME280;46439;51.164;13.572;2023-09-19T09:33:37;99386.85;;;21.99;100.00
60611;BME280;46439;51.164;13.572;2023-09-19T09:36:07;99391.86;;;22.03;100.00
60611;BME280;46439;51.164;13.572;2023-09-19T09:38:47;99392.33;;;21.98;100.00
60611;BME280;46439;51.164;13.572;2023-09-19T09:41:17;99392.63;;;22.02;100.00
60611;BME280;46439;51.164;13.572;2023-09-19T09:43:55;99388.02;;;22.04;100.00
60611;BME280;46439;51.164;13.572;2023-09-19T09:46:27;99389.98;;;22.12;100.00
60611;BME280;46439;51.164;13.572;2023-09-19T09:49:01;99390.10;;;22.26;100.00
60611;BME280;46439;51.164;13.572;2023-09-19T09:52:03;99387.84;;;22.27;100.00
60611;BME280;46439;51.164;13.572;2023-09-19T09:55:02;99382.16;;;22.29;100.00
60611;BME280;46439;51.164;13.572;2023-09-19T09:57:35;99383.59;;;22.24;100.00
60611;BME280;46439;51.164;13.572;2023-09-19T10:00:05;99390.84;;;22.27;100.00
60611;BME280;46439;51.164;13.572;2023-09-19T10:02:39;99390.73;;;22.24;100.00
60611;BME280;46439;51.164;13.572;2023-09-19T10:05:14;99393.92;;;22.34;100.00
60611;BME280;46439;51.164;13.572;2023-09-19T10:07:56;99392.52;;;22.39;100.00
60611;BME280;46439;51.164;13.572;2023-09-19T10:10:41;99392.31;;;22.42;100.00
60611;BME280;46439;51.164;13.572;2023-09-19T10:13:10;99391.27;;;22.43;100.00
60611;BME280;46439;51.164;13.572;2023-09-19T10:15:44;99395.95;;;22.49;100.00
60611;BME280;46439;51.164;13.572;2023-09-19T10:18:21;99399.98;;;22.57;100.00
60611;BME280;46439;51.164;13.572;2023-09-19T10:20:51;99394.45;;;22.64;100.00
60611;BME280;46439;51.164;13.572;2023-09-19T10:23:21;99394.56;;;22.69;100.00
60611;BME280;46439;51.164;13.572;2023-09-19T10:25:54;99392.82;;;22.78;100.00
60611;BME280;46439;51.164;13.572;2023-09-19T10:28:23;99392.77;;;22.80;100.00
60611;BME280;46439;51.164;13.572;2023-09-19T10:30:56;99391.39;;;22.82;100.00
60611;BME280;46439;51.164;13.572;2023-09-19T10:36:48;99379.23;;;22.96;100.00
60611;BME280;46439;51.164;13.572;2023-09-19T10:39:17;99383.29;;;23.06;100.00
60611;BME280;46439;51.164;13.572;2023-09-19T10:41:52;99372.94;;;23.18;100.00
60611;BME280;46439;51.164;13.572;2023-09-19T10:44:23;99373.97;;;23.30;100.00
60611;BME280;46439;51.164;13.572;2023-09-19T10:46:56;99378.80;;;23.42;100.00
60611;BME280;46439;51.164;13.572;2023-09-19T10:49:25;99380.98;;;23.52;100.00
60611;BME280;46439;51.164;13.572;2023-09-19T10:51:56;99381.42;;;23.53;100.00
60611;BME280;46439;51.164;13.572;2023-09-19T10:54:30;99382.59;;;23.49;100.00
60611;BME280;46439;51.164;13.572;2023-09-19T10:57:03;99379.88;;;23.52;100.00
60611;BME280;46439;51.164;13.572;2023-09-19T10:59:33;99385.89;;;23.55;100.00
60611;BME280;46439;51.164;13.572;2023-09-19T11:02:17;99380.64;;;23.58;100.00
60611;BME280;46439;51.164;13.572;2023-09-19T11:04:46;99383.54;;;23.66;100.00
60611;BME280;46439;51.164;13.572;2023-09-19T11:07:16;99385.46;;;23.71;100.00
60611;BME280;46439;51.164;13.572;2023-09-19T11:09:50;99388.77;;;23.70;100.00
60611;BME280;46439;51.164;13.572;2023-09-19T11:12:50;99384.20;;;23.66;100.00
60611;BME280;46439;51.164;13.572;2023-09-19T11:18:54;99381.55;;;23.70;100.00
60611;BME280;46439;51.164;13.572;2023-09-19T11:21:42;99386.75;;;23.61;100.00
60611;BME280;46439;51.164;13.572;2023-09-19T11:24:39;99385.05;;;23.57;100.00
60611;BME280;46439;51.164;13.572;2023-09-19T11:27:15;99389.63;;;23.58;100.00
60611;BME280;46439;51.164;13.572;2023-09-19T11:29:46;99393.20;;;23.60;100.00
60611;BME280;46439;51.164;13.572;2023-09-19T11:32:16;99394.13;;;23.64;100.00
60611;BME280;46439;51.164;13.572;2023-09-19T11:35:02;99391.42;;;23.69;100.00
60611;BME280;46439;51.164;13.572;2023-09-19T11:38:03;99392.63;;;23.72;100.00
60611;BME280;46439;51.164;13.572;2023-09-19T11:40:46;99392.63;;;23.73;100.00
60611;BME280;46439;51.164;13.572;2023-09-19T11:43:34;99396.76;;;23.72;100.00
60611;BME280;46439;51.164;13.572;2023-09-19T11:46:15;99398.35;;;23.75;100.00
60611;BME280;46439;51.164;13.572;2023-09-19T11:48:49;99395.98;;;23.76;100.00
60611;BME280;46439;51.164;13.572;2023-09-19T11:51:22;99400.55;;;23.78;100.00
60611;BME280;46439;51.164;13.572;2023-09-19T11:53:55;99398.73;;;23.82;100.00
60611;BME280;46439;51.164;13.572;2023-09-19T11:56:29;99401.72;;;23.85;100.00
60611;BME280;46439;51.164;13.572;2023-09-19T11:59:00;99400.02;;;23.84;100.00
60611;BME280;46439;51.164;13.572;2023-09-19T12:01:33;99399.24;;;23.84;100.00
60611;BME280;46439;51.164;13.572;2023-09-19T12:04:07;99398.19;;;23.84;100.00
60611;BME280;46439;51.164;13.572;2023-09-19T12:06:38;99406.17;;;23.87;100.00
60611;BME280;46439;51.164;13.572;2023-09-19T12:09:15;99406.50;;;23.88;100.00
60611;BME280;46439;51.164;13.572;2023-09-19T12:11:45;99398.19;;;23.85;100.00
60611;BME280;46439;51.164;13.572;2023-09-19T12:14:25;99398.33;;;23.93;100.00
60611;BME280;46439;51.164;13.572;2023-09-19T12:17:05;99393.08;;;23.99;100.00
60611;BME280;46439;51.164;13.572;2023-09-19T12:19:34;99392.67;;;24.03;100.00
60611;BME280;46439;51.164;13.572;2023-09-19T12:22:08;99396.78;;;24.07;100.00
60611;BME280;46439;51.164;13.572;2023-09-19T12:24:50;99393.40;;;24.15;100.00
60611;BME280;46439;51.164;13.572;2023-09-19T12:27:25;99394.31;;;24.18;100.00
60611;BME280;46439;51.164;13.572;2023-09-19T12:30:03;99391.94;;;24.19;100.00
60611;BME280;46439;51.164;13.572;2023-09-19T12:35:44;99397.19;;;24.29;100.00
60611;BME280;46439;51.164;13.572;2023-09-19T12:38:34;99399.73;;;24.37;100.00
60611;BME280;46439;51.164;13.572;2023-09-19T12:41:30;99399.88;;;24.41;100.00
60611;BME280;46439;51.164;13.572;2023-09-19T12:43:59;99399.77;;;24.42;100.00
60611;BME280;46439;51.164;13.572;2023-09-19T12:46:38;99398.14;;;24.38;100.00
60611;BME280;46439;51.164;13.572;2023-09-19T12:52:17;99393.67;;;24.47;100.00
60611;BME280;46439;51.164;13.572;2023-09-19T12:55:23;99394.60;;;24.49;100.00
60611;BME280;46439;51.164;13.572;2023-09-19T13:01:38;99390.29;;;24.53;100.00
60611;BME280;46439;51.164;13.572;2023-09-19T13:04:16;99397.38;;;24.61;100.00
60611;BME280;46439;51.164;13.572;2023-09-19T13:06:49;99394.77;;;24.65;100.00
60611;BME280;46439;51.164;13.572;2023-09-19T13:09:19;99394.54;;;24.65;100.00
60611;BME280;46439;51.164;13.572;2023-09-19T13:11:48;99393.39;;;24.63;100.00
60611;BME280;46439;51.164;13.572;2023-09-19T13:14:21;99397.65;;;24.63;100.00
60611;BME280;46439;51.164;13.572;2023-09-19T13:16:59;99400.92;;;24.66;100.00
60611;BME280;46439;51.164;13.572;2023-09-19T13:19:49;99395.16;;;24.63;100.00
60611;BME280;46439;51.164;13.572;2023-09-19T13:22:41;99388.61;;;24.67;100.00